sensor_id;sensor_type;location;lat;lon;timestamp;P1;durP1;ratioP1;P2;durP2;ratioP2
61038;SDS011;46919;45.816;3.104;2023-12-04T00:01:45;2.13;;;1.50;;
61038;SDS011;46919;45.816;3.104;2023-12-04T00:04:12;2.33;;;1.48;;
61038;SDS011;46919;45.816;3.104;2023-12-04T00:06:38;2.53;;;1.42;;
61038;SDS011;46919;45.816;3.104;2023-12-04T00:09:03;3.65;;;1.75;;
61038;SDS011;46919;45.816;3.104;2023-12-04T00:11:29;2.75;;;1.38;;
61038;SDS011;46919;45.816;3.104;2023-12-04T00:13:54;4.72;;;1.40;;
61038;SDS011;46919;45.816;3.104;2023-12-04T00:16:20;1.88;;;1.10;;
61038;SDS011;46919;45.816;3.104;2023-12-04T00:18:45;1.50;;;1.00;;
61038;SDS011;46919;45.816;3.104;2023-12-04T00:21:11;2.83;;;1.23;;
61038;SDS011;46919;45.816;3.104;2023-12-04T00:23:37;2.55;;;1.15;;
61038;SDS011;46919;45.816;3.104;2023-12-04T00:26:03;1.73;;;1.05;;
61038;SDS011;46919;45.816;3.104;2023-12-04T00:28:28;1.38;;;0.98;;
61038;SDS011;46919;45.816;3.104;2023-12-04T00:30:54;2.58;;;1.20;;
61038;SDS011;46919;45.816;3.104;2023-12-04T00:33:19;3.45;;;1.30;;
61038;SDS011;46919;45.816;3.104;2023-12-04T00:35:45;3.25;;;1.30;;
61038;SDS011;46919;45.816;3.104;2023-12-04T00:38:11;1.33;;;0.95;;
61038;SDS011;46919;45.816;3.104;2023-12-04T00:40:36;2.47;;;1.10;;
61038;SDS011;46919;45.816;3.104;2023-12-04T00:43:02;1.88;;;1.25;;
61038;SDS011;46919;45.816;3.104;2023-12-04T00:45:27;1.45;;;1.00;;
61038;SDS011;46919;45.816;3.104;2023-12-04T00:47:52;1.95;;;1.10;;
61038;SDS011;46919;45.816;3.104;2023-12-04T00:50:18;2.30;;;1.30;;
61038;SDS011;46919;45.816;3.104;2023-12-04T00:52:43;2.35;;;1.00;;
61038;SDS011;46919;45.816;3.104;2023-12-04T00:55:09;2.03;;;1.00;;
61038;SDS011;46919;45.816;3.104;2023-12-04T00:57:34;1.33;;;0.80;;
61038;SDS011;46919;45.816;3.104;2023-12-04T01:00:00;1.50;;;1.10;;
61038;SDS011;46919;45.816;3.104;2023-12-04T01:02:25;2.10;;;1.00;;
61038;SDS011;46919;45.816;3.104;2023-12-04T01:04:50;2.17;;;1.15;;
61038;SDS011;46919;45.816;3.104;2023-12-04T01:07:16;4.78;;;0.80;;
61038;SDS011;46919;45.816;3.104;2023-12-04T01:09:41;1.95;;;0.93;;
61038;SDS011;46919;45.816;3.104;2023-12-04T01:12:07;1.55;;;0.90;;
61038;SDS011;46919;45.816;3.104;2023-12-04T01:14:32;1.33;;;0.93;;
61038;SDS011;46919;45.816;3.104;2023-12-04T01:16:58;3.25;;;1.10;;
61038;SDS011;46919;45.816;3.104;2023-12-04T01:19:23;3.53;;;1.08;;
61038;SDS011;46919;45.816;3.104;2023-12-04T01:21:49;2.15;;;1.10;;
61038;SDS011;46919;45.816;3.104;2023-12-04T01:24:14;1.65;;;0.95;;
61038;SDS011;46919;45.816;3.104;2023-12-04T01:26:40;4.20;;;1.17;;
61038;SDS011;46919;45.816;3.104;2023-12-04T01:29:06;3.67;;;0.80;;
61038;SDS011;46919;45.816;3.104;2023-12-04T01:31:32;2.30;;;1.17;;
61038;SDS011;46919;45.816;3.104;2023-12-04T01:33:57;1.83;;;1.00;;
61038;SDS011;46919;45.816;3.104;2023-12-04T01:36:23;1.67;;;0.82;;
61038;SDS011;46919;45.816;3.104;2023-12-04T01:38:48;2.13;;;0.93;;
61038;SDS011;46919;45.816;3.104;2023-12-04T01:41:13;2.67;;;1.20;;
61038;SDS011;46919;45.816;3.104;2023-12-04T01:43:39;1.38;;;1.10;;
61038;SDS011;46919;45.816;3.104;2023-12-04T01:46:04;3.22;;;1.00;;
61038;SDS011;46919;45.816;3.104;2023-12-04T01:48:31;3.65;;;1.10;;
61038;SDS011;46919;45.816;3.104;2023-12-04T01:50:58;3.40;;;1.20;;
61038;SDS011;46919;45.816;3.104;2023-12-04T01:53:25;1.63;;;1.02;;
61038;SDS011;46919;45.816;3.104;2023-12-04T01:55:51;3.78;;;1.13;;
61038;SDS011;46919;45.816;3.104;2023-12-04T01:58:18;1.38;;;0.82;;
61038;SDS011;46919;45.816;3.104;2023-12-04T02:00:43;2.03;;;1.00;;
61038;SDS011;46919;45.816;3.104;2023-12-04T02:03:09;3.40;;;1.02;;
61038;SDS011;46919;45.816;3.104;2023-12-04T02:05:35;2.58;;;1.13;;
61038;SDS011;46919;45.816;3.104;2023-12-04T02:08:00;2.58;;;0.98;;
61038;SDS011;46919;45.816;3.104;2023-12-04T02:10:26;3.70;;;1.30;;
61038;SDS011;46919;45.816;3.104;2023-12-04T02:12:51;3.55;;;1.13;;
61038;SDS011;46919;45.816;3.104;2023-12-04T02:15:17;2.33;;;1.00;;
61038;SDS011;46919;45.816;3.104;2023-12-04T02:17:43;2.30;;;1.02;;
61038;SDS011;46919;45.816;3.104;2023-12-04T02:20:12;4.22;;;1.48;;
61038;SDS011;46919;45.816;3.104;2023-12-04T02:22:39;2.15;;;1.02;;
61038;SDS011;46919;45.816;3.104;2023-12-04T02:25:05;2.45;;;1.25;;
61038;SDS011;46919;45.816;3.104;2023-12-04T02:27:37;1.67;;;1.00;;
61038;SDS011;46919;45.816;3.104;2023-12-04T02:30:06;2.25;;;0.90;;
61038;SDS011;46919;45.816;3.104;2023-12-04T02:32:35;3.03;;;1.00;;
61038;SDS011;46919;45.816;3.104;2023-12-04T02:35:07;1.92;;;1.02;;
61038;SDS011;46919;45.816;3.104;2023-12-04T02:37:34;4.90;;;0.93;;
61038;SDS011;46919;45.816;3.104;2023-12-04T02:40:00;1.13;;;0.90;;
61038;SDS011;46919;45.816;3.104;2023-12-04T02:42:27;2.83;;;1.13;;
61038;SDS011;46919;45.816;3.104;2023-12-04T02:44:52;2.13;;;1.10;;
61038;SDS011;46919;45.816;3.104;2023-12-04T02:47:18;2.83;;;0.95;;
61038;SDS011;46919;45.816;3.104;2023-12-04T02:49:44;3.45;;;1.10;;
61038;SDS011;46919;45.816;3.104;2023-12-04T02:52:09;1.88;;;1.00;;
61038;SDS011;46919;45.816;3.104;2023-12-04T02:54:35;4.25;;;0.98;;
61038;SDS011;46919;45.816;3.104;2023-12-04T02:57:00;2.88;;;1.08;;
61038;SDS011;46919;45.816;3.104;2023-12-04T02:59:26;4.32;;;1.30;;
61038;SDS011;46919;45.816;3.104;2023-12-04T03:01:51;4.40;;;1.38;;
61038;SDS011;46919;45.816;3.104;2023-12-04T03:04:18;3.80;;;1.20;;
61038;SDS011;46919;45.816;3.104;2023-12-04T03:06:44;4.72;;;1.17;;
61038;SDS011;46919;45.816;3.104;2023-12-04T03:09:09;2.55;;;1.10;;
61038;SDS011;46919;45.816;3.104;2023-12-04T03:11:35;3.65;;;1.55;;
61038;SDS011;46919;45.816;3.104;2023-12-04T03:14:00;3.22;;;1.20;;
61038;SDS011;46919;45.816;3.104;2023-12-04T03:16:26;4.30;;;1.25;;
61038;SDS011;46919;45.816;3.104;2023-12-04T03:18:52;5.05;;;1.30;;
61038;SDS011;46919;45.816;3.104;2023-12-04T03:21:17;3.03;;;1.10;;
61038;SDS011;46919;45.816;3.104;2023-12-04T03:23:43;2.42;;;1.08;;
61038;SDS011;46919;45.816;3.104;2023-12-04T03:26:08;2.60;;;1.33;;
61038;SDS011;46919;45.816;3.104;2023-12-04T03:28:34;4.03;;;1.42;;
61038;SDS011;46919;45.816;3.104;2023-12-04T03:30:59;1.55;;;0.95;;
61038;SDS011;46919;45.816;3.104;2023-12-04T03:33:25;3.40;;;1.10;;
61038;SDS011;46919;45.816;3.104;2023-12-04T03:35:50;2.22;;;1.10;;
61038;SDS011;46919;45.816;3.104;2023-12-04T03:38:15;2.35;;;1.05;;
61038;SDS011;46919;45.816;3.104;2023-12-04T03:40:41;3.78;;;1.17;;
61038;SDS011;46919;45.816;3.104;2023-12-04T03:43:06;2.50;;;1.25;;
61038;SDS011;46919;45.816;3.104;2023-12-04T03:45:32;1.77;;;0.80;;
61038;SDS011;46919;45.816;3.104;2023-12-04T03:47:57;6.28;;;1.38;;
61038;SDS011;46919;45.816;3.104;2023-12-04T03:50:23;1.48;;;0.98;;
61038;SDS011;46919;45.816;3.104;2023-12-04T03:52:48;3.22;;;1.00;;
61038;SDS011;46919;45.816;3.104;2023-12-04T03:55:13;1.38;;;0.90;;
61038;SDS011;46919;45.816;3.104;2023-12-04T03:57:39;2.85;;;1.00;;
61038;SDS011;46919;45.816;3.104;2023-12-04T04:00:04;3.17;;;1.40;;
61038;SDS011;46919;45.816;3.104;2023-12-04T04:02:30;4.03;;;1.50;;
61038;SDS011;46919;45.816;3.104;2023-12-04T04:04:56;4.68;;;1.80;;
61038;SDS011;46919;45.816;3.104;2023-12-04T04:07:21;5.28;;;2.17;;
61038;SDS011;46919;45.816;3.104;2023-12-04T04:09:46;5.28;;;2.80;;
61038;SDS011;46919;45.816;3.104;2023-12-04T04:12:12;4.65;;;2.15;;
61038;SDS011;46919;45.816;3.104;2023-12-04T04:14:37;3.95;;;1.50;;
61038;SDS011;46919;45.816;3.104;2023-12-04T04:17:03;2.25;;;0.80;;
61038;SDS011;46919;45.816;3.104;2023-12-04T04:19:29;2.40;;;0.82;;
61038;SDS011;46919;45.816;3.104;2023-12-04T04:21:54;3.22;;;1.08;;
61038;SDS011;46919;45.816;3.104;2023-12-04T04:24:20;2.85;;;0.90;;
61038;SDS011;46919;45.816;3.104;2023-12-04T04:26:45;2.13;;;0.80;;
61038;SDS011;46919;45.816;3.104;2023-12-04T04:29:10;2.20;;;0.77;;
61038;SDS011;46919;45.816;3.104;2023-12-04T04:31:36;3.45;;;0.80;;
61038;SDS011;46919;45.816;3.104;2023-12-04T04:34:01;1.92;;;0.85;;
61038;SDS011;46919;45.816;3.104;2023-12-04T04:36:27;1.00;;;0.63;;
61038;SDS011;46919;45.816;3.104;2023-12-04T04:38:52;1.60;;;0.90;;
61038;SDS011;46919;45.816;3.104;2023-12-04T04:41:18;2.33;;;0.90;;
61038;SDS011;46919;45.816;3.104;2023-12-04T04:43:43;2.35;;;0.95;;
61038;SDS011;46919;45.816;3.104;2023-12-04T04:46:09;4.30;;;1.13;;
61038;SDS011;46919;45.816;3.104;2023-12-04T04:48:34;1.90;;;0.80;;
61038;SDS011;46919;45.816;3.104;2023-12-04T04:51:00;2.45;;;0.90;;
61038;SDS011;46919;45.816;3.104;2023-12-04T04:53:25;2.22;;;0.88;;
61038;SDS011;46919;45.816;3.104;2023-12-04T04:55:51;2.17;;;1.05;;
61038;SDS011;46919;45.816;3.104;2023-12-04T04:58:16;1.63;;;0.80;;
61038;SDS011;46919;45.816;3.104;2023-12-04T05:00:42;2.05;;;0.70;;
61038;SDS011;46919;45.816;3.104;2023-12-04T05:03:08;2.47;;;0.90;;
61038;SDS011;46919;45.816;3.104;2023-12-04T05:05:34;1.45;;;0.90;;
61038;SDS011;46919;45.816;3.104;2023-12-04T05:07:59;1.85;;;0.77;;
61038;SDS011;46919;45.816;3.104;2023-12-04T05:10:24;2.05;;;1.00;;
61038;SDS011;46919;45.816;3.104;2023-12-04T05:12:50;3.45;;;1.00;;
61038;SDS011;46919;45.816;3.104;2023-12-04T05:15:15;1.95;;;0.82;;
61038;SDS011;46919;45.816;3.104;2023-12-04T05:17:40;3.20;;;1.00;;
61038;SDS011;46919;45.816;3.104;2023-12-04T05:20:06;1.83;;;0.90;;
61038;SDS011;46919;45.816;3.104;2023-12-04T05:22:32;2.03;;;0.77;;
61038;SDS011;46919;45.816;3.104;2023-12-04T05:24:59;1.77;;;1.00;;
61038;SDS011;46919;45.816;3.104;2023-12-04T05:27:24;1.52;;;0.90;;
61038;SDS011;46919;45.816;3.104;2023-12-04T05:29:50;3.30;;;1.00;;
61038;SDS011;46919;45.816;3.104;2023-12-04T05:32:16;2.15;;;1.00;;
61038;SDS011;46919;45.816;3.104;2023-12-04T05:34:41;2.17;;;1.10;;
61038;SDS011;46919;45.816;3.104;2023-12-04T05:37:07;2.05;;;1.00;;
61038;SDS011;46919;45.816;3.104;2023-12-04T05:39:32;2.25;;;1.00;;
61038;SDS011;46919;45.816;3.104;2023-12-04T05:41:58;3.45;;;0.93;;
61038;SDS011;46919;45.816;3.104;2023-12-04T05:44:23;6.30;;;1.10;;
61038;SDS011;46919;45.816;3.104;2023-12-04T05:46:48;3.95;;;1.25;;
61038;SDS011;46919;45.816;3.104;2023-12-04T05:49:14;4.38;;;0.98;;
61038;SDS011;46919;45.816;3.104;2023-12-04T05:51:39;2.25;;;1.23;;
61038;SDS011;46919;45.816;3.104;2023-12-04T05:54:05;4.00;;;1.17;;
61038;SDS011;46919;45.816;3.104;2023-12-04T05:56:30;3.63;;;1.52;;
61038;SDS011;46919;45.816;3.104;2023-12-04T05:58:56;4.03;;;1.15;;
61038;SDS011;46919;45.816;3.104;2023-12-04T06:01:21;2.33;;;1.20;;
61038;SDS011;46919;45.816;3.104;2023-12-04T06:03:47;1.58;;;1.00;;
61038;SDS011;46919;45.816;3.104;2023-12-04T06:06:12;2.08;;;1.10;;
61038;SDS011;46919;45.816;3.104;2023-12-04T06:08:38;4.10;;;1.10;;
61038;SDS011;46919;45.816;3.104;2023-12-04T06:11:03;1.38;;;0.95;;
61038;SDS011;46919;45.816;3.104;2023-12-04T06:13:29;2.60;;;1.20;;
61038;SDS011;46919;45.816;3.104;2023-12-04T06:15:54;3.00;;;1.27;;
61038;SDS011;46919;45.816;3.104;2023-12-04T06:18:19;3.63;;;1.20;;
61038;SDS011;46919;45.816;3.104;2023-12-04T06:20:47;2.35;;;1.27;;
61038;SDS011;46919;45.816;3.104;2023-12-04T06:23:14;2.42;;;1.20;;
61038;SDS011;46919;45.816;3.104;2023-12-04T06:25:40;3.03;;;1.33;;
61038;SDS011;46919;45.816;3.104;2023-12-04T06:28:05;3.45;;;1.20;;
61038;SDS011;46919;45.816;3.104;2023-12-04T06:30:31;2.78;;;1.80;;
61038;SDS011;46919;45.816;3.104;2023-12-04T06:32:57;3.60;;;1.50;;
61038;SDS011;46919;45.816;3.104;2023-12-04T06:35:22;2.95;;;1.40;;
61038;SDS011;46919;45.816;3.104;2023-12-04T06:37:48;3.88;;;1.42;;
61038;SDS011;46919;45.816;3.104;2023-12-04T06:40:16;1.92;;;1.10;;
61038;SDS011;46919;45.816;3.104;2023-12-04T06:42:42;3.20;;;1.35;;
61038;SDS011;46919;45.816;3.104;2023-12-04T06:45:08;2.15;;;1.40;;
61038;SDS011;46919;45.816;3.104;2023-12-04T06:47:35;3.47;;;1.30;;
61038;SDS011;46919;45.816;3.104;2023-12-04T06:50:02;2.80;;;1.30;;
61038;SDS011;46919;45.816;3.104;2023-12-04T06:52:27;5.70;;;1.33;;
61038;SDS011;46919;45.816;3.104;2023-12-04T06:54:53;3.22;;;1.20;;
61038;SDS011;46919;45.816;3.104;2023-12-04T06:57:18;3.08;;;1.40;;
61038;SDS011;46919;45.816;3.104;2023-12-04T06:59:43;4.32;;;1.58;;
61038;SDS011;46919;45.816;3.104;2023-12-04T07:02:09;1.73;;;1.30;;
61038;SDS011;46919;45.816;3.104;2023-12-04T07:04:34;2.42;;;1.30;;
61038;SDS011;46919;45.816;3.104;2023-12-04T07:07:00;1.75;;;1.40;;
61038;SDS011;46919;45.816;3.104;2023-12-04T07:09:32;3.33;;;1.58;;
61038;SDS011;46919;45.816;3.104;2023-12-04T07:11:59;3.97;;;1.38;;
61038;SDS011;46919;45.816;3.104;2023-12-04T07:14:25;1.45;;;1.10;;
61038;SDS011;46919;45.816;3.104;2023-12-04T07:16:51;1.80;;;1.20;;
61038;SDS011;46919;45.816;3.104;2023-12-04T07:19:17;3.58;;;1.30;;
61038;SDS011;46919;45.816;3.104;2023-12-04T07:21:42;3.25;;;1.25;;
61038;SDS011;46919;45.816;3.104;2023-12-04T07:24:08;3.28;;;1.40;;
61038;SDS011;46919;45.816;3.104;2023-12-04T07:26:34;3.63;;;1.70;;
61038;SDS011;46919;45.816;3.104;2023-12-04T07:29:00;2.72;;;1.70;;
61038;SDS011;46919;45.816;3.104;2023-12-04T07:31:26;2.70;;;1.80;;
61038;SDS011;46919;45.816;3.104;2023-12-04T07:33:54;3.30;;;1.80;;
61038;SDS011;46919;45.816;3.104;2023-12-04T07:36:19;4.45;;;2.00;;
61038;SDS011;46919;45.816;3.104;2023-12-04T07:38:45;3.28;;;1.55;;
61038;SDS011;46919;45.816;3.104;2023-12-04T07:41:10;5.32;;;1.50;;
61038;SDS011;46919;45.816;3.104;2023-12-04T07:43:36;8.48;;;3.90;;
61038;SDS011;46919;45.816;3.104;2023-12-04T07:46:01;8.70;;;4.32;;
61038;SDS011;46919;45.816;3.104;2023-12-04T07:48:28;2.53;;;1.77;;
61038;SDS011;46919;45.816;3.104;2023-12-04T07:50:54;5.13;;;1.50;;
61038;SDS011;46919;45.816;3.104;2023-12-04T07:53:20;2.83;;;1.65;;
61038;SDS011;46919;45.816;3.104;2023-12-04T07:55:46;3.55;;;1.00;;
61038;SDS011;46919;45.816;3.104;2023-12-04T07:58:13;1.88;;;1.13;;
61038;SDS011;46919;45.816;3.104;2023-12-04T08:00:39;1.77;;;1.10;;
61038;SDS011;46919;45.816;3.104;2023-12-04T08:03:04;1.75;;;0.88;;
61038;SDS011;46919;45.816;3.104;2023-12-04T08:05:29;1.80;;;1.05;;
61038;SDS011;46919;45.816;3.104;2023-12-04T08:07:56;1.48;;;1.00;;
61038;SDS011;46919;45.816;3.104;2023-12-04T08:10:22;1.80;;;0.93;;
61038;SDS011;46919;45.816;3.104;2023-12-04T08:12:48;1.70;;;1.00;;
61038;SDS011;46919;45.816;3.104;2023-12-04T08:15:13;2.70;;;1.10;;
61038;SDS011;46919;45.816;3.104;2023-12-04T08:17:39;1.27;;;0.95;;
61038;SDS011;46919;45.816;3.104;2023-12-04T08:20:04;2.42;;;1.00;;
61038;SDS011;46919;45.816;3.104;2023-12-04T08:22:31;1.85;;;0.70;;
61038;SDS011;46919;45.816;3.104;2023-12-04T08:24:56;1.00;;;0.70;;
61038;SDS011;46919;45.816;3.104;2023-12-04T08:27:23;5.22;;;0.95;;
61038;SDS011;46919;45.816;3.104;2023-12-04T08:29:49;1.23;;;0.63;;
61038;SDS011;46919;45.816;3.104;2023-12-04T08:32:15;1.23;;;0.63;;
61038;SDS011;46919;45.816;3.104;2023-12-04T08:34:40;3.08;;;1.05;;
61038;SDS011;46919;45.816;3.104;2023-12-04T08:37:06;1.10;;;0.80;;
61038;SDS011;46919;45.816;3.104;2023-12-04T08:39:32;1.13;;;0.60;;
61038;SDS011;46919;45.816;3.104;2023-12-04T08:41:57;1.40;;;0.57;;
61038;SDS011;46919;45.816;3.104;2023-12-04T08:44:22;1.23;;;0.73;;
61038;SDS011;46919;45.816;3.104;2023-12-04T08:46:49;1.38;;;0.63;;
61038;SDS011;46919;45.816;3.104;2023-12-04T08:49:15;1.02;;;0.82;;
61038;SDS011;46919;45.816;3.104;2023-12-04T08:51:40;0.70;;;0.60;;
61038;SDS011;46919;45.816;3.104;2023-12-04T08:54:06;3.03;;;0.70;;
61038;SDS011;46919;45.816;3.104;2023-12-04T08:56:32;0.65;;;0.50;;
61038;SDS011;46919;45.816;3.104;2023-12-04T08:58:57;1.83;;;0.40;;
61038;SDS011;46919;45.816;3.104;2023-12-04T09:01:23;0.52;;;0.40;;
61038;SDS011;46919;45.816;3.104;2023-12-04T09:03:49;1.13;;;1.02;;
61038;SDS011;46919;45.816;3.104;2023-12-04T09:06:14;0.90;;;0.70;;
61038;SDS011;46919;45.816;3.104;2023-12-04T09:08:40;0.75;;;0.57;;
61038;SDS011;46919;45.816;3.104;2023-12-04T09:11:06;0.38;;;0.32;;
61038;SDS011;46919;45.816;3.104;2023-12-04T09:13:32;0.57;;;0.30;;
61038;SDS011;46919;45.816;3.104;2023-12-04T09:15:59;0.35;;;0.30;;
61038;SDS011;46919;45.816;3.104;2023-12-04T09:18:24;0.50;;;0.50;;
61038;SDS011;46919;45.816;3.104;2023-12-04T09:20:50;1.55;;;0.57;;
61038;SDS011;46919;45.816;3.104;2023-12-04T09:23:15;0.68;;;0.50;;
61038;SDS011;46919;45.816;3.104;2023-12-04T09:25:41;0.82;;;0.50;;
61038;SDS011;46919;45.816;3.104;2023-12-04T09:28:06;0.63;;;0.30;;
61038;SDS011;46919;45.816;3.104;2023-12-04T09:30:33;1.10;;;0.60;;
61038;SDS011;46919;45.816;3.104;2023-12-04T09:33:00;0.60;;;0.50;;
61038;SDS011;46919;45.816;3.104;2023-12-04T09:35:26;1.73;;;0.70;;
61038;SDS011;46919;45.816;3.104;2023-12-04T09:37:51;2.53;;;0.70;;
61038;SDS011;46919;45.816;3.104;2023-12-04T09:40:16;0.85;;;0.63;;
61038;SDS011;46919;45.816;3.104;2023-12-04T09:42:42;0.63;;;0.47;;
61038;SDS011;46919;45.816;3.104;2023-12-04T09:45:08;1.30;;;0.40;;
61038;SDS011;46919;45.816;3.104;2023-12-04T09:47:34;0.88;;;0.45;;
61038;SDS011;46919;45.816;3.104;2023-12-04T09:50:00;0.60;;;0.40;;
61038;SDS011;46919;45.816;3.104;2023-12-04T09:52:27;0.45;;;0.45;;
61038;SDS011;46919;45.816;3.104;2023-12-04T09:54:53;1.30;;;1.02;;
61038;SDS011;46919;45.816;3.104;2023-12-04T09:57:18;0.80;;;0.60;;
61038;SDS011;46919;45.816;3.104;2023-12-04T09:59:44;0.45;;;0.30;;
61038;SDS011;46919;45.816;3.104;2023-12-04T10:02:11;1.65;;;0.93;;
61038;SDS011;46919;45.816;3.104;2023-12-04T10:04:36;0.77;;;0.50;;
61038;SDS011;46919;45.816;3.104;2023-12-04T10:07:02;0.47;;;0.30;;
61038;SDS011;46919;45.816;3.104;2023-12-04T10:09:28;0.57;;;0.50;;
61038;SDS011;46919;45.816;3.104;2023-12-04T10:11:55;0.32;;;0.32;;
61038;SDS011;46919;45.816;3.104;2023-12-04T10:14:22;1.00;;;0.60;;
61038;SDS011;46919;45.816;3.104;2023-12-04T10:16:48;1.63;;;0.70;;
61038;SDS011;46919;45.816;3.104;2023-12-04T10:19:18;0.63;;;0.47;;
61038;SDS011;46919;45.816;3.104;2023-12-04T10:21:51;4.25;;;1.55;;
61038;SDS011;46919;45.816;3.104;2023-12-04T10:27:09;0.65;;;0.40;;
61038;SDS011;46919;45.816;3.104;2023-12-04T10:29:44;1.58;;;0.82;;
61038;SDS011;46919;45.816;3.104;2023-12-04T10:32:12;1.77;;;1.67;;
61038;SDS011;46919;45.816;3.104;2023-12-04T10:34:38;2.80;;;2.50;;
61038;SDS011;46919;45.816;3.104;2023-12-04T10:37:04;2.47;;;1.75;;
61038;SDS011;46919;45.816;3.104;2023-12-04T10:39:30;1.35;;;1.00;;
61038;SDS011;46919;45.816;3.104;2023-12-04T10:42:02;1.50;;;1.15;;
61038;SDS011;46919;45.816;3.104;2023-12-04T10:44:30;5.03;;;2.35;;
61038;SDS011;46919;45.816;3.104;2023-12-04T10:46:57;2.58;;;0.50;;
61038;SDS011;46919;45.816;3.104;2023-12-04T10:49:26;1.25;;;0.60;;
61038;SDS011;46919;45.816;3.104;2023-12-04T10:51:55;2.90;;;2.63;;
61038;SDS011;46919;45.816;3.104;2023-12-04T10:54:22;0.68;;;0.52;;
61038;SDS011;46919;45.816;3.104;2023-12-04T10:56:48;1.27;;;0.30;;
61038;SDS011;46919;45.816;3.104;2023-12-04T10:59:18;0.93;;;0.65;;
61038;SDS011;46919;45.816;3.104;2023-12-04T11:01:48;0.90;;;0.50;;
61038;SDS011;46919;45.816;3.104;2023-12-04T11:04:17;0.98;;;0.60;;
61038;SDS011;46919;45.816;3.104;2023-12-04T11:06:49;0.65;;;0.43;;
61038;SDS011;46919;45.816;3.104;2023-12-04T11:09:17;0.60;;;0.40;;
61038;SDS011;46919;45.816;3.104;2023-12-04T11:11:43;0.70;;;0.40;;
61038;SDS011;46919;45.816;3.104;2023-12-04T11:14:16;0.80;;;0.40;;
61038;SDS011;46919;45.816;3.104;2023-12-04T11:16:49;0.47;;;0.30;;
61038;SDS011;46919;45.816;3.104;2023-12-04T11:22:22;0.65;;;0.30;;
61038;SDS011;46919;45.816;3.104;2023-12-04T11:24:50;0.80;;;0.40;;
61038;SDS011;46919;45.816;3.104;2023-12-04T11:27:16;0.52;;;0.45;;
61038;SDS011;46919;45.816;3.104;2023-12-04T11:29:43;1.95;;;0.50;;
61038;SDS011;46919;45.816;3.104;2023-12-04T11:32:14;0.77;;;0.50;;
61038;SDS011;46919;45.816;3.104;2023-12-04T11:34:50;0.65;;;0.55;;
61038;SDS011;46919;45.816;3.104;2023-12-04T11:37:19;0.60;;;0.50;;
61038;SDS011;46919;45.816;3.104;2023-12-04T11:39:46;0.35;;;0.30;;
61038;SDS011;46919;45.816;3.104;2023-12-04T11:42:13;0.75;;;0.50;;
61038;SDS011;46919;45.816;3.104;2023-12-04T11:44:40;0.82;;;0.40;;
61038;SDS011;46919;45.816;3.104;2023-12-04T11:47:08;0.40;;;0.32;;
61038;SDS011;46919;45.816;3.104;2023-12-04T11:49:34;1.15;;;0.50;;
61038;SDS011;46919;45.816;3.104;2023-12-04T11:52:00;0.80;;;0.47;;
61038;SDS011;46919;45.816;3.104;2023-12-04T11:54:35;1.52;;;0.70;;
61038;SDS011;46919;45.816;3.104;2023-12-04T11:57:21;0.70;;;0.50;;
61038;SDS011;46919;45.816;3.104;2023-12-04T11:59:49;0.63;;;0.43;;
61038;SDS011;46919;45.816;3.104;2023-12-04T12:02:15;0.70;;;0.70;;
61038;SDS011;46919;45.816;3.104;2023-12-04T12:04:42;1.35;;;0.75;;
61038;SDS011;46919;45.816;3.104;2023-12-04T12:07:07;0.82;;;0.40;;
61038;SDS011;46919;45.816;3.104;2023-12-04T12:09:33;0.52;;;0.43;;
61038;SDS011;46919;45.816;3.104;2023-12-04T12:12:00;0.85;;;0.50;;
61038;SDS011;46919;45.816;3.104;2023-12-04T12:14:28;0.93;;;0.40;;
61038;SDS011;46919;45.816;3.104;2023-12-04T12:16:54;0.47;;;0.40;;
61038;SDS011;46919;45.816;3.104;2023-12-04T12:19:20;0.85;;;0.40;;
61038;SDS011;46919;45.816;3.104;2023-12-04T12:21:46;0.80;;;0.47;;
61038;SDS011;46919;45.816;3.104;2023-12-04T12:24:14;0.70;;;0.40;;
61038;SDS011;46919;45.816;3.104;2023-12-04T12:26:40;1.83;;;0.60;;
61038;SDS011;46919;45.816;3.104;2023-12-04T12:29:06;0.70;;;0.52;;
61038;SDS011;46919;45.816;3.104;2023-12-04T12:31:34;0.45;;;0.40;;
61038;SDS011;46919;45.816;3.104;2023-12-04T12:33:59;0.57;;;0.57;;
61038;SDS011;46919;45.816;3.104;2023-12-04T12:36:25;0.32;;;0.30;;
61038;SDS011;46919;45.816;3.104;2023-12-04T12:38:50;0.80;;;0.40;;
61038;SDS011;46919;45.816;3.104;2023-12-04T12:41:16;0.43;;;0.40;;
61038;SDS011;46919;45.816;3.104;2023-12-04T12:43:42;1.52;;;0.35;;
61038;SDS011;46919;45.816;3.104;2023-12-04T12:46:08;0.22;;;0.20;;
61038;SDS011;46919;45.816;3.104;2023-12-04T12:48:35;1.88;;;0.40;;
61038;SDS011;46919;45.816;3.104;2023-12-04T12:51:02;3.67;;;0.35;;
61038;SDS011;46919;45.816;3.104;2023-12-04T12:53:28;2.13;;;0.30;;
61038;SDS011;46919;45.816;3.104;2023-12-04T12:55:53;0.73;;;0.30;;
61038;SDS011;46919;45.816;3.104;2023-12-04T12:58:19;1.75;;;0.65;;
61038;SDS011;46919;45.816;3.104;2023-12-04T13:00:45;1.17;;;0.60;;
61038;SDS011;46919;45.816;3.104;2023-12-04T13:03:17;0.38;;;0.30;;
61038;SDS011;46919;45.816;3.104;2023-12-04T13:05:44;1.58;;;1.08;;
61038;SDS011;46919;45.816;3.104;2023-12-04T13:08:10;1.17;;;0.30;;
61038;SDS011;46919;45.816;3.104;2023-12-04T13:10:36;5.28;;;0.40;;
61038;SDS011;46919;45.816;3.104;2023-12-04T13:13:02;0.22;;;0.20;;
61038;SDS011;46919;45.816;3.104;2023-12-04T13:15:27;0.90;;;0.40;;
61038;SDS011;46919;45.816;3.104;2023-12-04T13:17:53;0.63;;;0.40;;
61038;SDS011;46919;45.816;3.104;2023-12-04T13:20:18;0.70;;;0.30;;
61038;SDS011;46919;45.816;3.104;2023-12-04T13:22:44;0.57;;;0.32;;
61038;SDS011;46919;45.816;3.104;2023-12-04T13:25:10;1.65;;;0.40;;
61038;SDS011;46919;45.816;3.104;2023-12-04T13:27:36;1.08;;;0.30;;
61038;SDS011;46919;45.816;3.104;2023-12-04T13:30:05;2.17;;;0.30;;
61038;SDS011;46919;45.816;3.104;2023-12-04T13:32:31;1.00;;;0.40;;
61038;SDS011;46919;45.816;3.104;2023-12-04T13:34:58;0.88;;;0.50;;
61038;SDS011;46919;45.816;3.104;2023-12-04T13:37:24;1.27;;;0.40;;
61038;SDS011;46919;45.816;3.104;2023-12-04T13:39:51;1.45;;;0.50;;
61038;SDS011;46919;45.816;3.104;2023-12-04T13:42:23;0.75;;;0.55;;
61038;SDS011;46919;45.816;3.104;2023-12-04T13:45:10;2.58;;;0.50;;
61038;SDS011;46919;45.816;3.104;2023-12-04T13:47:37;0.73;;;0.40;;
61038;SDS011;46919;45.816;3.104;2023-12-04T13:50:04;0.10;;;0.10;;
61038;SDS011;46919;45.816;3.104;2023-12-04T13:52:33;0.75;;;0.32;;
61038;SDS011;46919;45.816;3.104;2023-12-04T13:54:59;0.32;;;0.22;;
61038;SDS011;46919;45.816;3.104;2023-12-04T13:57:25;0.40;;;0.40;;
61038;SDS011;46919;45.816;3.104;2023-12-04T13:59:58;1.45;;;0.43;;
61038;SDS011;46919;45.816;3.104;2023-12-04T14:02:24;0.80;;;0.40;;
61038;SDS011;46919;45.816;3.104;2023-12-04T14:04:50;1.20;;;0.35;;
61038;SDS011;46919;45.816;3.104;2023-12-04T14:07:15;0.40;;;0.20;;
61038;SDS011;46919;45.816;3.104;2023-12-04T14:09:41;0.52;;;0.28;;
61038;SDS011;46919;45.816;3.104;2023-12-04T14:12:07;0.28;;;0.15;;
61038;SDS011;46919;45.816;3.104;2023-12-04T14:14:33;0.50;;;0.30;;
61038;SDS011;46919;45.816;3.104;2023-12-04T14:17:00;0.40;;;0.35;;
61038;SDS011;46919;45.816;3.104;2023-12-04T14:19:28;0.17;;;0.17;;
61038;SDS011;46919;45.816;3.104;2023-12-04T14:21:54;1.08;;;0.50;;
61038;SDS011;46919;45.816;3.104;2023-12-04T14:24:19;0.82;;;0.30;;
61038;SDS011;46919;45.816;3.104;2023-12-04T14:26:46;0.60;;;0.40;;
61038;SDS011;46919;45.816;3.104;2023-12-04T14:29:12;0.88;;;0.60;;
61038;SDS011;46919;45.816;3.104;2023-12-04T14:31:38;0.75;;;0.50;;
61038;SDS011;46919;45.816;3.104;2023-12-04T14:34:04;0.30;;;0.30;;
61038;SDS011;46919;45.816;3.104;2023-12-04T14:36:29;0.38;;;0.22;;
61038;SDS011;46919;45.816;3.104;2023-12-04T14:38:58;0.60;;;0.30;;
61038;SDS011;46919;45.816;3.104;2023-12-04T14:41:27;0.32;;;0.28;;
61038;SDS011;46919;45.816;3.104;2023-12-04T14:43:53;0.45;;;0.20;;
61038;SDS011;46919;45.816;3.104;2023-12-04T14:46:19;1.10;;;0.28;;
61038;SDS011;46919;45.816;3.104;2023-12-04T14:48:44;0.95;;;0.28;;